createdAt,value
2018-01-25T00:01:55.474Z,96370.73
2018-01-25T00:04:22.829Z,96372.20
2018-01-25T00:06:51.506Z,96379.06
2018-01-25T00:09:18.958Z,96378.58
2018-01-25T00:11:46.381Z,96375.83
2018-01-25T00:14:13.791Z,96376.22
2018-01-25T00:16:43.133Z,96384.30
2018-01-25T00:19:10.518Z,96366.44
2018-01-25T00:21:37.898Z,96358.02
2018-01-25T00:24:05.306Z,96351.17
2018-01-25T00:26:33.759Z,96361.70
2018-01-25T00:29:01.356Z,96366.73
2018-01-25T00:31:28.806Z,96391.98
2018-01-25T00:33:56.282Z,96388.23
2018-01-25T00:36:23.647Z,96386.11
2018-01-25T00:38:51.060Z,96375.50
2018-01-25T00:41:18.723Z,96369.94
2018-01-25T00:43:46.167Z,96369.09
2018-01-25T00:46:13.528Z,96372.08
2018-01-25T00:48:40.892Z,96358.63
2018-01-25T00:51:08.310Z,96360.64
2018-01-25T00:53:36.115Z,96357.41
2018-01-25T00:56:03.473Z,96370.23
2018-01-25T00:58:31.057Z,96365.34
2018-01-25T01:00:58.472Z,96357.90
2018-01-25T01:03:25.838Z,96348.66
2018-01-25T01:05:53.260Z,96353.20
2018-01-25T01:08:20.785Z,96348.58
2018-01-25T01:10:48.154Z,96351.21
2018-01-25T01:13:15.645Z,96354.54
2018-01-25T01:15:43.205Z,96353.51
2018-01-25T01:18:10.545Z,96342.49
2018-01-25T01:20:37.978Z,96349.89
2018-01-25T01:23:05.365Z,96349.55
2018-01-25T01:25:32.780Z,96352.02
2018-01-25T01:28:00.144Z,96346.07
2018-01-25T01:30:27.510Z,96336.70
2018-01-25T01:32:54.948Z,96349.22
2018-01-25T01:35:22.308Z,96349.72
2018-01-25T01:37:50.217Z,96335.23
2018-01-25T01:40:17.853Z,96338.95
2018-01-25T01:42:45.262Z,96326.47
2018-01-25T01:45:12.755Z,96323.75
2018-01-25T01:47:40.232Z,96322.81
2018-01-25T01:50:07.710Z,96325.21
2018-01-25T01:52:35.172Z,96324.29
2018-01-25T01:55:02.918Z,96322.23
2018-01-25T01:57:30.377Z,96322.38
2018-01-25T01:59:58.112Z,96307.56
2018-01-25T02:02:25.537Z,96310.01
2018-01-25T02:04:52.924Z,96313.88
2018-01-25T02:07:20.562Z,96315.70
2018-01-25T02:09:48.525Z,96310.18
2018-01-25T02:12:15.886Z,96305.42
2018-01-25T02:14:43.288Z,96296.83
2018-01-25T02:17:10.739Z,96290.91
2018-01-25T02:19:38.141Z,96285.16
2018-01-25T02:22:06.373Z,96288.48
2018-01-25T02:24:33.908Z,96293.16
2018-01-25T02:27:01.290Z,96292.77
2018-01-25T02:29:28.682Z,96293.20
2018-01-25T02:31:56.043Z,96282.34
2018-01-25T02:34:23.377Z,96285.88
2018-01-25T02:36:50.885Z,96283.77
2018-01-25T02:39:18.494Z,96279.91
2018-01-25T02:41:45.995Z,96280.50
2018-01-25T02:44:13.451Z,96275.99
2018-01-25T02:46:41.070Z,96274.73
2018-01-25T02:49:08.768Z,96263.48
2018-01-25T02:51:36.243Z,96275.84
2018-01-25T02:54:03.714Z,96269.54
2018-01-25T02:56:31.063Z,96272.61
2018-01-25T02:58:58.468Z,96270.95
2018-01-25T03:01:25.854Z,96271.57
2018-01-25T03:03:53.766Z,96275.83
2018-01-25T03:06:21.206Z,96271.97
2018-01-25T03:08:49.063Z,96269.52
2018-01-25T03:11:16.473Z,96270.20
2018-01-25T03:13:43.891Z,96269.36
2018-01-25T03:16:11.281Z,96266.53
2018-01-25T03:18:38.717Z,96268.70
2018-01-25T03:21:07.157Z,96265.40
2018-01-25T03:23:34.617Z,96273.66
2018-01-25T03:26:02.023Z,96268.14
2018-01-25T03:28:29.378Z,96263.80
2018-01-25T03:30:56.864Z,96263.73
2018-01-25T03:33:24.756Z,96259.08
2018-01-25T03:35:52.410Z,96258.06
2018-01-25T03:38:20.727Z,96260.36
2018-01-25T03:40:48.191Z,96250.72
2018-01-25T03:43:15.742Z,96254.18
2018-01-25T03:45:43.173Z,96262.73
2018-01-25T03:48:10.611Z,96256.63
2018-01-25T03:50:38.182Z,96253.84
2018-01-25T03:53:05.587Z,96253.02
2018-01-25T03:55:33.890Z,96257.38
2018-01-25T03:58:01.284Z,96247.11
2018-01-25T04:00:29.017Z,96242.39
2018-01-25T04:02:56.558Z,96239.89
2018-01-25T04:05:24.186Z,96233.48
2018-01-25T04:07:51.709Z,96247.77
2018-01-25T04:10:19.249Z,96251.47
2018-01-25T04:12:47.024Z,96250.63
2018-01-25T04:15:14.514Z,96252.03
2018-01-25T04:17:42.173Z,96248.81
2018-01-25T04:20:09.864Z,96242.61
2018-01-25T04:22:37.260Z,96245.33
2018-01-25T04:25:04.906Z,96243.47
2018-01-25T04:27:32.335Z,96244.95
2018-01-25T04:29:59.704Z,96236.16
2018-01-25T04:32:27.290Z,96238.88
2018-01-25T04:34:54.649Z,96235.42
2018-01-25T04:37:22.312Z,96235.03
2018-01-25T04:42:23.285Z,96238.53
2018-01-25T04:44:50.714Z,96238.19
2018-01-25T04:47:18.150Z,96243.44
2018-01-25T04:49:45.666Z,96237.77
2018-01-25T04:52:13.067Z,96246.55
2018-01-25T04:54:40.544Z,96247.25
2018-01-25T04:57:07.924Z,96250.52
2018-01-25T04:59:35.352Z,96252.02
2018-01-25T05:02:02.843Z,96253.30
2018-01-25T05:04:30.340Z,96250.16
2018-01-25T05:06:57.838Z,96248.76
2018-01-25T05:09:25.417Z,96248.52
2018-01-25T05:11:52.836Z,96247.17
2018-01-25T05:14:20.244Z,96246.97
2018-01-25T05:16:47.670Z,96251.09
2018-01-25T05:19:15.135Z,96244.74
2018-01-25T05:21:42.546Z,96246.03
2018-01-25T05:24:10.007Z,96243.23
2018-01-25T05:26:37.425Z,96248.89
2018-01-25T05:29:04.854Z,96255.33
2018-01-25T05:31:32.320Z,96246.19
2018-01-25T05:33:59.732Z,96251.87
2018-01-25T05:36:27.125Z,96247.62
2018-01-25T05:38:54.756Z,96243.92
2018-01-25T05:41:22.172Z,96252.77
2018-01-25T05:43:50.906Z,96250.77
2018-01-25T05:46:18.494Z,96262.00
2018-01-25T05:48:46.080Z,96272.96
2018-01-25T05:51:13.771Z,96277.60
2018-01-25T05:53:42.343Z,96288.36
2018-01-25T05:56:09.778Z,96289.77
2018-01-25T05:58:37.235Z,96289.80
2018-01-25T06:01:06.142Z,96289.64
2018-01-25T06:03:33.531Z,96297.73
2018-01-25T06:06:00.966Z,96286.38
2018-01-25T06:08:28.547Z,96280.11
2018-01-25T06:10:55.957Z,96268.05
2018-01-25T06:13:23.347Z,96264.14
2018-01-25T06:15:50.816Z,96247.11
2018-01-25T06:18:18.198Z,96246.89
2018-01-25T06:20:45.575Z,96234.47
2018-01-25T06:23:13.158Z,96236.59
2018-01-25T06:25:40.594Z,96232.11
2018-01-25T06:28:08.003Z,96229.02
2018-01-25T06:30:35.664Z,96226.91
2018-01-25T06:33:03.238Z,96245.47
2018-01-25T06:35:30.647Z,96238.53
2018-01-25T06:37:58.157Z,96251.05
2018-01-25T06:40:25.626Z,96247.66
2018-01-25T06:42:53.058Z,96247.80
2018-01-25T06:45:20.467Z,96251.42
2018-01-25T06:47:47.880Z,96254.20
2018-01-25T06:50:15.303Z,96247.61
2018-01-25T06:52:42.883Z,96258.58
2018-01-25T06:55:10.370Z,96255.55
2018-01-25T06:57:37.851Z,96266.97
2018-01-25T07:00:05.288Z,96260.05
2018-01-25T07:02:32.797Z,96251.10
2018-01-25T07:05:00.199Z,96253.95
2018-01-25T07:07:27.723Z,96252.80
2018-01-25T07:09:55.184Z,96260.70
2018-01-25T07:12:22.652Z,96247.72
2018-01-25T07:14:50.262Z,96247.44
2018-01-25T07:17:17.699Z,96251.70
2018-01-25T07:19:46.244Z,96240.20
2018-01-25T07:22:13.746Z,96239.23
2018-01-25T07:24:41.266Z,96236.45
2018-01-25T07:27:08.723Z,96232.69
2018-01-25T07:29:36.529Z,96235.38
2018-01-25T07:32:03.994Z,96230.80
2018-01-25T07:34:31.464Z,96245.02
2018-01-25T07:36:58.946Z,96237.50
2018-01-25T07:39:26.382Z,96244.38
2018-01-25T07:41:53.840Z,96245.52
2018-01-25T07:44:21.322Z,96245.52
2018-01-25T07:46:51.232Z,96237.16
2018-01-25T07:49:19.317Z,96240.65
2018-01-25T07:51:46.968Z,96235.08
2018-01-25T07:54:14.369Z,96255.10
2018-01-25T07:56:41.836Z,96247.68
2018-01-25T07:59:10.317Z,96260.94
2018-01-25T08:01:39.079Z,96252.26
2018-01-25T08:04:07.861Z,96249.24
2018-01-25T08:06:38.466Z,96252.52
2018-01-25T08:09:06.737Z,96255.72
2018-01-25T08:11:35.167Z,96235.20
2018-01-25T08:14:05.878Z,96241.16
2018-01-25T08:16:36.273Z,96239.70
2018-01-25T08:19:04.922Z,96246.42
2018-01-25T08:21:37.861Z,96252.66
2018-01-25T08:24:05.984Z,96250.70
2018-01-25T08:26:33.495Z,96242.29
2018-01-25T08:29:02.029Z,96236.17
2018-01-25T08:31:29.582Z,96233.80
2018-01-25T08:34:00.906Z,96231.81
2018-01-25T08:41:40.370Z,96239.12
2018-01-25T08:44:09.820Z,96239.66
2018-01-25T08:46:38.135Z,96247.02
2018-01-25T08:49:08.935Z,96241.42
2018-01-25T08:51:39.102Z,96240.57
2018-01-25T08:54:07.567Z,96234.55
2018-01-25T08:56:35.066Z,96232.67
2018-01-25T08:59:06.732Z,96231.24
2018-01-25T09:01:43.749Z,96231.46
2018-01-25T09:04:11.516Z,96221.74
2018-01-25T09:06:45.272Z,96219.33
2018-01-25T09:09:12.703Z,96221.25
2018-01-25T09:11:43.111Z,96222.31
2018-01-25T09:16:51.050Z,96209.80
2018-01-25T09:19:22.101Z,96198.33
2018-01-25T09:21:50.674Z,96205.73
2018-01-25T09:24:20.051Z,96204.10
2018-01-25T09:27:00.243Z,96197.45
2018-01-25T09:29:28.107Z,96191.69
2018-01-25T09:31:55.987Z,96192.35
2018-01-25T09:34:25.114Z,96195.42
2018-01-25T09:36:53.254Z,96180.70
2018-01-25T09:39:24.650Z,96178.52
2018-01-25T09:41:55.031Z,96178.35
2018-01-25T09:44:22.697Z,96172.11
2018-01-25T09:46:51.527Z,96171.89
2018-01-25T09:49:35.014Z,96163.16
2018-01-25T09:52:06.122Z,96164.69
2018-01-25T09:54:35.860Z,96158.54
2018-01-25T09:57:04.095Z,96157.67
2018-01-25T09:59:36.889Z,96155.98
2018-01-25T10:02:07.738Z,96145.36
2018-01-25T10:04:35.397Z,96149.34
2018-01-25T10:07:03.064Z,96150.42
2018-01-25T10:09:32.113Z,96140.38
2018-01-25T10:12:00.006Z,96115.65
2018-01-25T10:14:27.997Z,96111.41
2018-01-25T10:16:57.176Z,96107.13
2018-01-25T10:22:06.519Z,96106.59
2018-01-25T10:24:40.227Z,96102.39
2018-01-25T10:27:07.807Z,96096.13
2018-01-25T10:29:35.610Z,96093.86
2018-01-25T10:32:03.526Z,96087.81
2018-01-25T10:34:31.104Z,96095.73
2018-01-25T10:36:59.185Z,96083.98
2018-01-25T10:39:28.033Z,96071.60
2018-01-25T10:41:58.412Z,96067.81
2018-01-25T10:44:27.215Z,96072.94
2018-01-25T10:49:29.763Z,96060.41
2018-01-25T10:52:00.189Z,96070.52
2018-01-25T10:54:31.330Z,96056.06
2018-01-25T10:56:58.807Z,96059.09
2018-01-25T10:59:27.606Z,96053.02
2018-01-25T11:02:01.696Z,96049.61
2018-01-25T11:04:30.819Z,96046.61
2018-01-25T11:06:58.776Z,96028.77
2018-01-25T11:09:31.689Z,96037.52
2018-01-25T11:11:59.519Z,96034.46
2018-01-25T11:14:35.793Z,96021.73
2018-01-25T11:17:04.146Z,96024.55
2018-01-25T11:19:33.578Z,96022.91
2018-01-25T11:22:08.260Z,96009.77
2018-01-25T11:24:46.697Z,96012.45
2018-01-25T11:27:14.444Z,96012.27
2018-01-25T11:29:41.953Z,96004.88
2018-01-25T11:32:09.494Z,96011.31
2018-01-25T11:34:40.044Z,96003.95
2018-01-25T11:37:07.624Z,95994.84
2018-01-25T11:39:35.460Z,95983.41
2018-01-25T11:42:02.970Z,95997.66
2018-01-25T11:44:30.871Z,95980.37
2018-01-25T11:46:58.370Z,95980.02
2018-01-25T11:49:26.186Z,95980.22
2018-01-25T11:51:55.381Z,95972.42
2018-01-25T11:54:22.843Z,95971.67
2018-01-25T11:56:50.439Z,95974.12
2018-01-25T11:59:18.199Z,95966.70
2018-01-25T12:01:45.820Z,95969.36
2018-01-25T12:04:13.506Z,95961.03
2018-01-25T12:06:46.268Z,95971.30
2018-01-25T12:09:13.766Z,95962.92
2018-01-25T12:11:41.234Z,95965.39
2018-01-25T12:14:08.725Z,95961.40
2018-01-25T12:16:36.121Z,95950.97
2018-01-25T12:19:03.757Z,95948.88
2018-01-25T12:21:31.386Z,95941.66
2018-01-25T12:23:59.817Z,95943.16
2018-01-25T12:26:27.782Z,95943.17
2018-01-25T12:28:55.295Z,95932.93
2018-01-25T12:31:23.035Z,95939.56
2018-01-25T12:33:50.561Z,95921.91
2018-01-25T12:36:18.074Z,95931.40
2018-01-25T12:38:45.618Z,95930.25
2018-01-25T12:41:13.059Z,95925.50
2018-01-25T12:43:41.820Z,95921.13
2018-01-25T12:46:13.792Z,95923.20
2018-01-25T12:48:41.567Z,95927.58
2018-01-25T12:51:09.622Z,95927.39
2018-01-25T12:53:37.018Z,95897.05
2018-01-25T12:56:05.168Z,95905.38
2018-01-25T12:58:33.224Z,95904.98
2018-01-25T13:01:01.060Z,95913.70
2018-01-25T13:03:28.557Z,95900.63
2018-01-25T13:05:56.458Z,95887.14
2018-01-25T13:08:24.235Z,95894.13
2018-01-25T13:10:52.823Z,95896.25
2018-01-25T13:13:20.359Z,95898.17
2018-01-25T13:15:48.585Z,95894.38
2018-01-25T13:18:16.248Z,95892.47
2018-01-25T13:20:43.728Z,95896.99
2018-01-25T13:23:11.340Z,95873.67
2018-01-25T13:25:39.111Z,95887.48
2018-01-25T13:28:06.904Z,95879.38
2018-01-25T13:30:34.409Z,95889.42
2018-01-25T13:33:01.979Z,95883.34
2018-01-25T13:35:29.598Z,95874.80
2018-01-25T13:37:57.629Z,95882.60
2018-01-25T13:40:25.032Z,95874.80
2018-01-25T13:42:52.572Z,95872.32
2018-01-25T13:45:19.982Z,95872.11
2018-01-25T13:47:48.845Z,95862.86
2018-01-25T13:50:16.371Z,95861.33
2018-01-25T13:52:43.842Z,95861.14
2018-01-25T13:55:11.294Z,95864.31
2018-01-25T13:57:38.756Z,95855.36
2018-01-25T14:00:06.172Z,95835.33
2018-01-25T14:02:33.639Z,95859.23
2018-01-25T14:05:01.046Z,95852.17
2018-01-25T14:07:28.601Z,95861.84
2018-01-25T14:09:57.972Z,95850.81
2018-01-25T14:12:25.611Z,95855.92
2018-01-25T14:14:53.001Z,95863.73
2018-01-25T14:17:20.617Z,95855.95
2018-01-25T14:19:48.229Z,95852.31
2018-01-25T14:22:15.870Z,95833.38
2018-01-25T14:24:43.320Z,95853.88
2018-01-25T14:27:10.746Z,95857.31
2018-01-25T14:29:38.114Z,95841.18
2018-01-25T14:32:05.610Z,95846.70
2018-01-25T14:34:33.034Z,95839.11
2018-01-25T14:37:00.655Z,95847.27
2018-01-25T14:39:28.091Z,95827.55
2018-01-25T14:41:55.494Z,95837.22
2018-01-25T14:44:22.933Z,95836.62
2018-01-25T14:46:50.857Z,95835.33
2018-01-25T14:49:18.384Z,95831.34
2018-01-25T14:51:45.817Z,95835.12
2018-01-25T14:54:13.283Z,95815.97
2018-01-25T14:56:40.767Z,95831.72
2018-01-25T14:59:08.195Z,95818.45
2018-01-25T15:01:35.719Z,95821.64
2018-01-25T15:04:03.236Z,95818.63
2018-01-25T15:06:30.699Z,95827.94
2018-01-25T15:08:58.255Z,95816.92
2018-01-25T15:11:25.705Z,95818.25
2018-01-25T15:13:53.134Z,95830.97
2018-01-25T15:16:21.988Z,95827.94
2018-01-25T15:18:49.489Z,95827.19
2018-01-25T15:21:16.977Z,95828.69
2018-01-25T15:23:44.504Z,95839.53
2018-01-25T15:26:11.978Z,95844.08
2018-01-25T15:28:39.606Z,95836.48
2018-01-25T15:31:07.081Z,95839.15
2018-01-25T15:33:34.618Z,95838.02
2018-01-25T15:36:02.076Z,95839.91
2018-01-25T15:38:29.504Z,95832.13
2018-01-25T15:40:57.322Z,95838.57
2018-01-25T15:43:24.838Z,95845.61
2018-01-25T15:45:52.276Z,95842.38
2018-01-25T15:48:19.669Z,95831.00
2018-01-25T15:50:47.097Z,95837.65
2018-01-25T15:53:14.546Z,95839.94
2018-01-25T15:55:41.951Z,95841.81
2018-01-25T15:58:09.679Z,95846.77
2018-01-25T16:00:38.032Z,95842.97
2018-01-25T16:03:07.262Z,95839.34
2018-01-25T16:05:35.070Z,95833.69
2018-01-25T16:08:08.394Z,95830.27
2018-01-25T16:10:36.451Z,95838.04
2018-01-25T16:13:04.214Z,95837.08
2018-01-25T16:15:35.501Z,95849.41
2018-01-25T16:18:03.586Z,95843.73
2018-01-25T16:20:31.620Z,95836.53
2018-01-25T16:23:01.630Z,95821.72
2018-01-25T16:25:29.557Z,95832.91
2018-01-25T16:27:57.172Z,95839.00
2018-01-25T16:30:24.579Z,95837.09
2018-01-25T16:32:52.947Z,95838.81
2018-01-25T16:35:21.114Z,95843.91
2018-01-25T16:37:49.013Z,95844.12
2018-01-25T16:40:17.363Z,95845.82
2018-01-25T16:42:44.796Z,95845.05
2018-01-25T16:45:12.362Z,95853.22
2018-01-25T16:47:40.322Z,95849.61
2018-01-25T16:50:08.354Z,95854.92
2018-01-25T16:52:35.882Z,95863.23
2018-01-25T16:55:03.339Z,95862.70
2018-01-25T16:57:30.965Z,95853.77
2018-01-25T16:59:58.996Z,95854.48
2018-01-25T17:02:26.781Z,95853.17
2018-01-25T17:04:54.319Z,95861.53
2018-01-25T17:07:21.883Z,95856.02
2018-01-25T17:09:49.385Z,95850.51
2018-01-25T17:12:18.617Z,95848.63
2018-01-25T17:14:46.288Z,95848.78
2018-01-25T17:17:13.702Z,95852.02
2018-01-25T17:19:41.291Z,95854.50
2018-01-25T17:22:08.771Z,95848.41
2018-01-25T17:24:36.187Z,95849.93
2018-01-25T17:27:03.614Z,95850.13
2018-01-25T17:29:31.015Z,95851.06
2018-01-25T17:31:58.440Z,95849.92
2018-01-25T17:34:26.403Z,95857.67
2018-01-25T17:36:53.864Z,95855.23
2018-01-25T17:39:21.291Z,95853.70
2018-01-25T17:41:48.715Z,95856.16
2018-01-25T17:44:16.222Z,95849.53
2018-01-25T17:46:43.596Z,95854.64
2018-01-25T17:49:11.033Z,95859.92
2018-01-25T17:51:38.451Z,95862.98
2018-01-25T17:54:05.830Z,95861.81
2018-01-25T17:56:33.260Z,95865.06
2018-01-25T17:59:00.751Z,95865.62
2018-01-25T18:01:28.199Z,95855.36
2018-01-25T18:03:55.599Z,95863.53
2018-01-25T18:06:23.012Z,95865.40
2018-01-25T18:08:50.392Z,95860.05
2018-01-25T18:11:17.879Z,95862.14
2018-01-25T18:13:45.289Z,95867.27
2018-01-25T18:16:12.722Z,95871.64
2018-01-25T18:18:40.156Z,95867.47
2018-01-25T18:21:07.554Z,95869.72
2018-01-25T18:23:34.990Z,95871.62
2018-01-25T18:26:02.426Z,95867.45
2018-01-25T18:28:29.846Z,95875.41
2018-01-25T18:30:57.263Z,95878.10
2018-01-25T18:33:24.896Z,95868.75
2018-01-25T18:35:52.273Z,95876.34
2018-01-25T18:38:19.910Z,95875.20
2018-01-25T18:40:47.466Z,95873.66
2018-01-25T18:43:14.881Z,95873.48
2018-01-25T18:45:49.467Z,95873.69
2018-01-25T18:48:17.164Z,95871.02
2018-01-25T18:50:44.616Z,95869.50
2018-01-25T18:53:11.987Z,95874.59
2018-01-25T18:55:39.876Z,95876.45
2018-01-25T18:58:07.389Z,95872.84
2018-01-25T19:00:34.839Z,95863.91
2018-01-25T19:03:02.337Z,95873.23
2018-01-25T19:05:29.944Z,95878.89
2018-01-25T19:07:57.345Z,95883.63
2018-01-25T19:10:24.815Z,95875.48
2018-01-25T19:12:52.203Z,95872.42
2018-01-25T19:15:19.655Z,95878.47
2018-01-25T19:17:47.220Z,95868.98
2018-01-25T19:20:14.783Z,95874.12
2018-01-25T19:22:42.244Z,95876.20
2018-01-25T19:25:09.666Z,95875.79
2018-01-25T19:27:37.044Z,95875.58
2018-01-25T19:30:04.680Z,95870.64
2018-01-25T19:32:32.170Z,95874.82
2018-01-25T19:34:59.680Z,95879.37
2018-01-25T19:37:27.058Z,95873.49
2018-01-25T19:39:54.515Z,95870.84
2018-01-25T19:42:22.195Z,95875.94
2018-01-25T19:44:49.587Z,95874.78
2018-01-25T19:47:17.184Z,95878.94
2018-01-25T19:49:44.862Z,95880.25
2018-01-25T19:52:12.267Z,95881.02
2018-01-25T19:54:40.674Z,95883.85
2018-01-25T19:57:08.081Z,95885.56
2018-01-25T19:59:35.511Z,95879.50
2018-01-25T20:02:02.949Z,95883.84
2018-01-25T20:04:30.385Z,95888.72
2018-01-25T20:06:58.036Z,95886.05
2018-01-25T20:09:25.425Z,95881.50
2018-01-25T20:11:52.854Z,95886.77
2018-01-25T20:14:20.283Z,95881.63
2018-01-25T20:16:47.898Z,95876.68
2018-01-25T20:19:15.382Z,95875.66
2018-01-25T20:21:42.914Z,95886.22
2018-01-25T20:24:10.342Z,95874.05
2018-01-25T20:26:37.847Z,95878.37
2018-01-25T20:29:05.337Z,95874.54
2018-01-25T20:31:32.762Z,95874.34
2018-01-25T20:34:00.253Z,95877.89
2018-01-25T20:36:28.319Z,95877.64
2018-01-25T20:38:55.836Z,95888.45
2018-01-25T20:41:23.274Z,95887.48
2018-01-25T20:43:50.659Z,95890.45
2018-01-25T20:46:18.123Z,95890.07
2018-01-25T20:48:45.987Z,95890.23
2018-01-25T20:51:13.450Z,95891.14
2018-01-25T20:53:40.851Z,95887.33
2018-01-25T20:56:08.254Z,95893.75
2018-01-25T20:58:35.823Z,95885.92
2018-01-25T21:01:03.310Z,95888.61
2018-01-25T21:03:30.949Z,95882.10
2018-01-25T21:05:58.374Z,95886.99
2018-01-25T21:08:25.842Z,95885.27
2018-01-25T21:10:53.235Z,95886.99
2018-01-25T21:13:20.789Z,95886.17
2018-01-25T21:15:48.210Z,95881.03
2018-01-25T21:18:15.667Z,95880.83
2018-01-25T21:20:43.214Z,95885.36
2018-01-25T21:23:10.578Z,95886.50
2018-01-25T21:25:38.143Z,95886.63
2018-01-25T21:28:05.545Z,95887.78
2018-01-25T21:30:33.007Z,95889.05
2018-01-25T21:33:00.637Z,95885.83
2018-01-25T21:35:28.022Z,95894.53
2018-01-25T21:37:55.412Z,95890.73
2018-01-25T21:40:23.984Z,95895.20
2018-01-25T21:42:51.346Z,95898.57
2018-01-25T21:45:18.845Z,95897.03
2018-01-25T21:47:46.484Z,95904.17
2018-01-25T21:50:13.919Z,95901.72
2018-01-25T21:52:41.340Z,95901.36
2018-01-25T21:55:09.502Z,95892.60
2018-01-25T21:57:36.877Z,95897.54
2018-01-25T22:00:04.446Z,95898.61
2018-01-25T22:02:31.830Z,95892.34
2018-01-25T22:04:59.251Z,95895.20
2018-01-25T22:07:26.891Z,95888.34
2018-01-25T22:09:54.435Z,95891.38
2018-01-25T22:12:21.853Z,95898.73
2018-01-25T22:14:49.221Z,95887.00
2018-01-25T22:17:16.870Z,95897.91
2018-01-25T22:19:44.410Z,95878.28
2018-01-25T22:22:13.170Z,95893.72
2018-01-25T22:24:40.613Z,95886.07
2018-01-25T22:27:08.069Z,95897.09
2018-01-25T22:29:35.524Z,95888.58
2018-01-25T22:32:02.906Z,95895.05
2018-01-25T22:34:30.326Z,95886.48
2018-01-25T22:36:57.768Z,95885.33
2018-01-25T22:39:25.184Z,95883.59
2018-01-25T22:41:52.600Z,95886.63
2018-01-25T22:44:20.026Z,95885.20
2018-01-25T22:46:48.189Z,95879.22
2018-01-25T22:49:16.842Z,95884.09
2018-01-25T22:51:44.210Z,95882.03
2018-01-25T22:54:11.630Z,95879.52
2018-01-25T22:56:39.040Z,95884.64
2018-01-25T22:59:06.478Z,95885.30
2018-01-25T23:01:33.858Z,95880.82
2018-01-25T23:04:01.296Z,95876.63
2018-01-25T23:06:28.884Z,95876.55
2018-01-25T23:08:56.397Z,95877.37
2018-01-25T23:11:23.862Z,95875.45
2018-01-25T23:13:51.272Z,95873.00
2018-01-25T23:16:18.968Z,95864.22
2018-01-25T23:18:46.379Z,95868.24
2018-01-25T23:21:14.038Z,95871.43
2018-01-25T23:23:41.665Z,95869.70
2018-01-25T23:26:09.080Z,95865.23
2018-01-25T23:28:36.635Z,95867.60
2018-01-25T23:31:04.046Z,95865.52
2018-01-25T23:33:31.646Z,95859.84
2018-01-25T23:35:59.137Z,95857.01
2018-01-25T23:38:26.519Z,95869.22
2018-01-25T23:40:54.034Z,95867.03
2018-01-25T23:43:21.410Z,95870.35
2018-01-25T23:45:48.861Z,95873.32
2018-01-25T23:48:16.307Z,95864.84
2018-01-25T23:50:43.750Z,95862.75
2018-01-25T23:53:11.180Z,95858.62
2018-01-25T23:55:38.571Z,95858.54
2018-01-25T23:58:06.062Z,95856.97
